Time;durP1;ratioP1;P1;durP2;ratioP2;P2;SDS_P1;SDS_P2;PMS_P1;PMS_P2;Temp;Humidity;BMP_temperature;BMP_pressure;BME280_temperature;BME280_humidity;BME280_pressure;Samples;Min_cycle;Max_cycle;Signal;HPM_P1;HPM_P2
2019/04/19 00:01:38;;;;;;;6.6;4.5;;;;;;;10.55;57.18652;967.569;;;;
2019/04/19 00:04:01;;;;;;;4.4;4;;;;;;;10.55;56.91016;967.6027;;;;
2019/04/19 00:06:38;;;;;;;4.5;4.1;;;;;;;10.45;57.44922;967.595;;;;
2019/04/19 00:09:04;;;;;;;5.1;4.2;;;;;;;10.43;57.44727;967.5754;;;;
2019/04/19 00:11:29;;;;;;;5.9;4;;;;;;;10.38;57.85645;967.5333;;;;
2019/04/19 00:13:54;;;;;;;4.6;3.9;;;;;;;10.34;57.9082;967.5839;;;;
2019/04/19 00:16:19;;;;;;;5.6;3.9;;;;;;;10.28;58.21094;967.5256;;;;
2019/04/19 00:18:49;;;;;;;4.5;4.1;;;;;;;10.27;58.1748;967.4709;;;;
2019/04/19 00:21:18;;;;;;;5.9;4.2;;;;;;;10.33;57.91797;967.5126;;;;
2019/04/19 00:23:43;;;;;;;5;4.3;;;;;;;10.19;58.63672;967.4994;;;;
2019/04/19 00:26:08;;;;;;;4.5;3.8;;;;;;;10.17;58.62305;967.4797;;;;
2019/04/19 00:28:33;;;;;;;4.6;4.1;;;;;;;10.16;58.56445;967.4549;;;;
2019/04/19 00:30:58;;;;;;;4.7;4;;;;;;;10.12;58.50098;967.4503;;;;
2019/04/19 00:33:23;;;;;;;5;4.5;;;;;;;10.14;58.33008;967.4785;;;;
2019/04/19 00:35:49;;;;;;;5.5;4.3;;;;;;;10.05;58.71094;967.4313;;;;
2019/04/19 00:38:14;;;;;;;5.1;4.6;;;;;;;10.04;58.69727;967.4747;;;;
2019/04/19 00:40:47;;;;;;;5.4;4.4;;;;;;;9.92;59.32617;967.5069;;;;
2019/04/19 00:43:14;;;;;;;4.9;4.4;;;;;;;9.76;60.06445;967.4828;;;;
2019/04/19 00:47:55;;;;;;;6.1;4.4;;;;;;;9.76;59.70898;967.5036;;;;
2019/04/19 00:50:20;;;;;;;6.1;4.3;;;;;;;9.65;60.1875;967.5181;;;;
2019/04/19 00:52:45;;;;;;;4.9;4.4;;;;;;;9.6;60.42188;967.5225;;;;
2019/04/19 00:55:13;;;;;;;5.1;4.6;;;;;;;9.51;60.84668;967.5347;;;;
2019/04/19 00:57:37;;;;;;;4.9;4.4;;;;;;;9.52;60.83691;967.5;;;;
2019/04/19 01:00:03;;;;;;;5.8;4.5;;;;;;;9.52;60.79199;967.5208;;;;
2019/04/19 01:02:28;;;;;;;5.3;4.6;;;;;;;9.5;60.70801;967.4891;;;;
2019/04/19 01:04:53;;;;;;;4.7;4.3;;;;;;;9.51;60.81152;967.4796;;;;
2019/04/19 01:07:18;;;;;;;5;4.5;;;;;;;9.48;61.06055;967.4738;;;;
2019/04/19 01:09:44;;;;;;;5.4;4.7;;;;;;;9.51;60.58105;967.4285;;;;
2019/04/19 01:12:09;;;;;;;5.8;4.5;;;;;;;9.47;60.83105;967.4398;;;;
2019/04/19 01:14:36;;;;;;;5;4.5;;;;;;;9.44;60.94141;967.4595;;;;
2019/04/19 01:17:01;;;;;;;5.4;4.7;;;;;;;9.42;60.96094;967.5045;;;;
2019/04/19 01:19:29;;;;;;;4.9;4.5;;;;;;;9.43;60.95117;967.4267;;;;
2019/04/19 01:21:54;;;;;;;6.7;4.7;;;;;;;9.38;61.30176;967.4608;;;;
2019/04/19 01:24:19;;;;;;;5;4.2;;;;;;;9.37;61.27734;967.4791;;;;
2019/04/19 01:26:44;;;;;;;5;4.5;;;;;;;9.28;61.55176;967.4695;;;;
2019/04/19 01:29:09;;;;;;;4.7;4.3;;;;;;;9.24;61.84473;967.4561;;;;
2019/04/19 01:31:34;;;;;;;4.9;4.4;;;;;;;9.25;61.86914;967.5275;;;;
2019/04/19 01:33:59;;;;;;;5.2;4.7;;;;;;;9.28;61.75781;967.5294;;;;
2019/04/19 01:36:24;;;;;;;5.1;4.6;;;;;;;9.22;61.78418;967.4832;;;;
2019/04/19 01:38:50;;;;;;;4.8;4.3;;;;;;;9.12;62.28711;967.5009;;;;
2019/04/19 01:41:15;;;;;;;5.2;4.6;;;;;;;9.11;62.41211;967.493;;;;
2019/04/19 01:44:06;;;;;;;5.3;4.7;;;;;;;9.06;62.97949;967.4977;;;;
2019/04/19 01:48:58;;;;;;;5.3;4.7;;;;;;;9;63.33887;967.5326;;;;
2019/04/19 01:51:22;;;;;;;5.4;4.7;;;;;;;9;63.14355;967.618;;;;
2019/04/19 01:53:37;;;;;;;5.6;5;;;;;;;9.07;62.71582;967.5903;;;;
2019/04/19 01:56:02;;;;;;;5.1;4.6;;;;;;;9.01;62.86914;967.6085;;;;
2019/04/19 01:58:27;;;;;;;4.8;4.4;;;;;;;8.96;63.1377;967.7145;;;;
2019/04/19 02:00:56;;;;;;;6.4;4.9;;;;;;;8.93;63.00684;967.6828;;;;
2019/04/19 02:03:21;;;;;;;5.4;4.7;;;;;;;8.94;63.26074;967.6694;;;;
2019/04/19 02:05:54;;;;;;;5.2;4.7;;;;;;;8.92;63.11035;967.6325;;;;
2019/04/19 02:08:24;;;;;;;5.7;4.7;;;;;;;8.92;63.02832;967.6883;;;;
2019/04/19 02:10:50;;;;;;;6.2;4.9;;;;;;;8.83;63.38477;967.6571;;;;
2019/04/19 02:13:17;;;;;;;5.3;4.8;;;;;;;8.8;63.66504;967.7155;;;;
2019/04/19 02:15:45;;;;;;;5.3;4.7;;;;;;;8.75;63.84277;967.6683;;;;
2019/04/19 02:18:10;;;;;;;5.5;5;;;;;;;8.71;63.96387;967.7441;;;;
2019/04/19 02:20:53;;;;;;;5.3;4.8;;;;;;;8.74;64.03613;967.755;;;;
2019/04/19 02:23:19;;;;;;;6.7;4.8;;;;;;;8.67;64.21094;967.7217;;;;
2019/04/19 02:25:44;;;;;;;6.6;4.7;;;;;;;8.62;64.375;967.7773;;;;
2019/04/19 02:28:28;;;;;;;4.9;4.4;;;;;;;8.56;64.5498;967.778;;;;
2019/04/19 02:31:09;;;;;;;5.2;4.7;;;;;;;8.47;64.80078;967.7729;;;;
2019/04/19 02:33:34;;;;;;;6.3;5.2;;;;;;;8.47;64.78906;967.7816;;;;
2019/04/19 02:35:59;;;;;;;6.9;5;;;;;;;8.5;64.50684;967.8469;;;;
2019/04/19 02:38:24;;;;;;;5.6;5.1;;;;;;;8.44;64.97852;967.8606;;;;
2019/04/19 02:40:49;;;;;;;5.5;5;;;;;;;8.35;65.34375;967.9103;;;;
2019/04/19 02:43:15;;;;;;;5.7;5.2;;;;;;;8.36;65.23047;967.9224;;;;
2019/04/19 02:45:39;;;;;;;6.4;5.2;;;;;;;8.35;65.19531;967.8887;;;;
2019/04/19 02:48:05;;;;;;;6.5;4.9;;;;;;;8.32;65.15625;967.9171;;;;
2019/04/19 02:50:30;;;;;;;7.8;5.1;;;;;;;8.24;65.6377;967.932;;;;
2019/04/19 02:53:15;;;;;;;6;5.4;;;;;;;8.16;66.02734;967.9261;;;;
2019/04/19 02:58:15;;;;;;;5.8;4.9;;;;;;;7.94;66.73926;967.9182;;;;
2019/04/19 03:00:38;;;;;;;6.9;5.1;;;;;;;7.92;66.70215;967.937;;;;
2019/04/19 03:03:02;;;;;;;5.8;5.1;;;;;;;7.8;67.14063;967.926;;;;
2019/04/19 03:05:26;;;;;;;5.5;5;;;;;;;7.77;67.39941;968.0002;;;;
2019/04/19 03:07:51;;;;;;;5.8;5.2;;;;;;;7.79;67.4502;967.9434;;;;
2019/04/19 03:10:16;;;;;;;6;5.4;;;;;;;7.69;67.93848;967.9808;;;;
2019/04/19 03:12:43;;;;;;;5.7;5.1;;;;;;;7.69;67.87012;967.9553;;;;
2019/04/19 03:15:08;;;;;;;5.5;5;;;;;;;7.65;67.88574;967.9589;;;;
2019/04/19 03:17:34;;;;;;;6;5.3;;;;;;;7.71;67.65527;968.0689;;;;
2019/04/19 03:19:59;;;;;;;6.2;5.1;;;;;;;7.66;67.99023;968.0262;;;;
2019/04/19 03:22:24;;;;;;;5.6;5;;;;;;;7.71;67.63184;968.0266;;;;
2019/04/19 03:24:49;;;;;;;6.4;5.3;;;;;;;7.85;67.21777;968.0323;;;;
2019/04/19 03:27:14;;;;;;;6;5.3;;;;;;;7.79;67.34668;968.0666;;;;
2019/04/19 03:29:53;;;;;;;6;5.4;;;;;;;7.71;67.57617;968.0514;;;;
2019/04/19 03:32:18;;;;;;;5.6;5.1;;;;;;;7.64;67.99902;968.0193;;;;
2019/04/19 03:34:43;;;;;;;5.7;5.1;;;;;;;7.57;68.10254;968.0122;;;;
2019/04/19 03:37:08;;;;;;;5.7;5.2;;;;;;;7.63;68.05371;968.1393;;;;
2019/04/19 03:39:34;;;;;;;6;5.4;;;;;;;7.59;68.32422;968.0397;;;;
2019/04/19 03:42:10;;;;;;;5.8;5.3;;;;;;;7.47;68.48828;968.105;;;;
2019/04/19 03:44:41;;;;;;;6.5;5.6;;;;;;;7.4;68.63672;968.1314;;;;
2019/04/19 03:47:04;;;;;;;6.1;5.4;;;;;;;7.39;68.81836;968.1451;;;;
2019/04/19 03:49:40;;;;;;;6.8;5.2;;;;;;;7.34;69.0625;968.1662;;;;
2019/04/19 03:52:05;;;;;;;6.7;5.6;;;;;;;7.43;68.68848;968.0906;;;;
2019/04/19 03:54:30;;;;;;;6.1;5.2;;;;;;;7.55;68.30566;968.158;;;;
2019/04/19 03:56:58;;;;;;;5.9;5.3;;;;;;;7.56;68.26172;968.1996;;;;
2019/04/19 03:59:22;;;;;;;6.1;5.2;;;;;;;7.48;68.48926;968.168;;;;
2019/04/19 04:02:52;;;;;;;5.9;5.4;;;;;;;7.44;68.57422;968.2477;;;;
2019/04/19 04:05:18;;;;;;;7;5.4;;;;;;;7.32;69.12891;968.3116;;;;
2019/04/19 04:07:45;;;;;;;6.9;5.7;;;;;;;7.4;68.98047;968.246;;;;
2019/04/19 04:10:21;;;;;;;6.3;5.7;;;;;;;7.4;69.3125;968.2587;;;;
2019/04/19 04:12:44;;;;;;;6.3;5.7;;;;;;;7.27;69.83105;968.3453;;;;
2019/04/19 04:15:04;;;;;;;7.7;6.1;;;;;;;7.24;69.63184;968.3858;;;;
2019/04/19 04:17:38;;;;;;;6;5.4;;;;;;;7.2;69.80762;968.4102;;;;
2019/04/19 04:20:04;;;;;;;6.4;5.6;;;;;;;7.23;70.00684;968.3275;;;;
2019/04/19 04:22:29;;;;;;;6.7;6;;;;;;;7.19;70.00098;968.4369;;;;
2019/04/19 04:24:54;;;;;;;6.6;6;;;;;;;7.17;70.17969;968.4465;;;;
2019/04/19 04:27:19;;;;;;;6.4;5.8;;;;;;;7.24;69.92773;968.4628;;;;
2019/04/19 04:29:44;;;;;;;6.8;6.1;;;;;;;7.21;70.05078;968.5193;;;;
2019/04/19 04:32:12;;;;;;;6.2;5.6;;;;;;;7.16;70.15625;968.5403;;;;
2019/04/19 04:34:37;;;;;;;6.1;5.4;;;;;;;7.14;70.33594;968.5342;;;;
2019/04/19 04:37:02;;;;;;;6;5.5;;;;;;;7.07;70.69043;968.5776;;;;
2019/04/19 04:39:32;;;;;;;8.5;6.2;;;;;;;7.08;70.54395;968.6275;;;;
2019/04/19 04:41:57;;;;;;;6.7;6.1;;;;;;;7.09;70.60156;968.6738;;;;
2019/04/19 04:44:29;;;;;;;7.8;6.2;;;;;;;7.01;70.97852;968.6708;;;;
2019/04/19 04:47:07;;;;;;;8.8;6.3;;;;;;;6.94;71.69727;968.6424;;;;
2019/04/19 04:54:31;;;;;;;6.7;6.1;;;;;;;6.88;71.95215;968.7825;;;;
2019/04/19 04:59:55;;;;;;;6.9;6.2;;;;;;;6.9;72.03516;968.7471;;;;
2019/04/19 05:02:40;;;;;;;7.5;6.3;;;;;;;6.98;71.7627;968.8137;;;;
2019/04/19 05:05:05;;;;;;;7;6.3;;;;;;;7.14;70.88477;968.8183;;;;
2019/04/19 05:07:48;;;;;;;6.4;5.8;;;;;;;7.31;70.2041;968.8557;;;;
2019/04/19 05:10:27;;;;;;;6.9;6.3;;;;;;;7.49;69.55469;968.8848;;;;
2019/04/19 05:12:52;;;;;;;6.6;6;;;;;;;7.62;69.07324;968.8995;;;;
2019/04/19 05:15:17;;;;;;;6.5;5.9;;;;;;;7.69;68.72949;968.9369;;;;
2019/04/19 05:17:43;;;;;;;6.2;5.6;;;;;;;7.73;68.45996;968.9842;;;;
2019/04/19 05:20:08;;;;;;;6.8;6;;;;;;;7.86;68.10352;969.0081;;;;
2019/04/19 05:22:33;;;;;;;7;6.3;;;;;;;7.92;67.66602;968.9777;;;;
2019/04/19 05:24:58;;;;;;;6.7;6.1;;;;;;;8.03;67.25684;969.08;;;;
2019/04/19 05:27:23;;;;;;;6.9;6.3;;;;;;;8.06;67.19336;969.0521;;;;
2019/04/19 05:29:49;;;;;;;6.8;6.2;;;;;;;8.11;66.98438;969.035;;;;
2019/04/19 05:32:15;;;;;;;8;6;;;;;;;8.2;66.68652;969.0323;;;;
2019/04/19 05:34:42;;;;;;;7.8;6.3;;;;;;;8.22;66.51855;969.0343;;;;
2019/04/19 05:37:09;;;;;;;6.4;5.8;;;;;;;8.28;66.52734;969.098;;;;
2019/04/19 05:39:50;;;;;;;6.8;5.8;;;;;;;8.35;66.33105;969.0795;;;;
2019/04/19 05:42:19;;;;;;;7.5;6;;;;;;;8.38;66.47461;969.1325;;;;
2019/04/19 05:44:42;;;;;;;6.7;6.1;;;;;;;8.41;66.61621;969.1811;;;;
2019/04/19 05:47:04;;;;;;;6.9;6.2;;;;;;;8.53;66.17676;969.2139;;;;
2019/04/19 05:49:32;;;;;;;6.8;6.1;;;;;;;8.55;66.18066;969.1523;;;;
2019/04/19 05:51:56;;;;;;;6.8;6;;;;;;;8.58;66.20605;969.1886;;;;
2019/04/19 05:54:21;;;;;;;7.6;6.4;;;;;;;8.65;65.88281;969.1576;;;;
2019/04/19 05:56:47;;;;;;;6.9;6.3;;;;;;;8.79;65.36621;969.1791;;;;
2019/04/19 05:59:14;;;;;;;7.5;6.2;;;;;;;8.83;64.55664;969.2653;;;;
2019/04/19 06:01:41;;;;;;;6.9;6.2;;;;;;;8.96;64.74707;969.3063;;;;
2019/04/19 06:04:06;;;;;;;6.5;5.9;;;;;;;9.08;64.65039;969.241;;;;
2019/04/19 06:06:32;;;;;;;6.3;5.7;;;;;;;9.14;64.34766;969.385;;;;
2019/04/19 06:08:57;;;;;;;7.1;6.4;;;;;;;9.24;63.43262;969.3167;;;;
2019/04/19 06:11:23;;;;;;;7.3;6.6;;;;;;;9.35;63.04492;969.3119;;;;
2019/04/19 06:13:49;;;;;;;6.4;5.8;;;;;;;9.4;63.16797;969.3247;;;;
2019/04/19 06:16:15;;;;;;;6.4;5.7;;;;;;;9.51;62.84961;969.3746;;;;
2019/04/19 06:18:44;;;;;;;6.5;5.9;;;;;;;9.69;62.69141;969.4315;;;;
2019/04/19 06:21:05;;;;;;;6.8;6.1;;;;;;;9.68;62.47168;969.4242;;;;
2019/04/19 06:23:30;;;;;;;6.8;6;;;;;;;9.82;62.1582;969.3987;;;;
2019/04/19 06:25:58;;;;;;;7;5.7;;;;;;;9.85;61.72559;969.4258;;;;
2019/04/19 06:28:23;;;;;;;6.5;5.9;;;;;;;9.88;61.46289;969.4583;;;;
2019/04/19 06:30:48;;;;;;;7;6.1;;;;;;;10.03;60.9668;969.4919;;;;
2019/04/19 06:33:13;;;;;;;7.1;6;;;;;;;10.05;60.88965;969.4685;;;;
2019/04/19 06:35:39;;;;;;;8;5.7;;;;;;;10.25;60.81348;969.4424;;;;
2019/04/19 06:38:04;;;;;;;6.4;5.8;;;;;;;10.17;60.68848;969.5343;;;;
2019/04/19 06:40:29;;;;;;;7.6;5.8;;;;;;;10.28;61.46387;969.427;;;;
2019/04/19 06:42:54;;;;;;;6.3;5.8;;;;;;;10.22;60.9707;969.4447;;;;
2019/04/19 06:45:19;;;;;;;8.3;6;;;;;;;10.35;60.2041;969.4639;;;;
2019/04/19 06:47:44;;;;;;;6.3;5.7;;;;;;;10.42;59.62598;969.4955;;;;
2019/04/19 06:50:09;;;;;;;6.3;5.6;;;;;;;10.55;59.68945;969.5103;;;;
2019/04/19 06:52:34;;;;;;;6.7;6.1;;;;;;;10.68;59.31641;969.562;;;;
2019/04/19 06:55:00;;;;;;;6.3;5.7;;;;;;;10.83;59.75293;969.5313;;;;
2019/04/19 06:57:25;;;;;;;6.5;5.9;;;;;;;10.85;59.02734;969.5212;;;;
2019/04/19 06:59:50;;;;;;;6.4;5.4;;;;;;;11.01;58.34277;969.5584;;;;
2019/04/19 07:02:18;;;;;;;6.5;5.5;;;;;;;11.14;57.99219;969.6355;;;;
2019/04/19 07:04:43;;;;;;;6.2;5.6;;;;;;;11.09;57.88184;969.6276;;;;
2019/04/19 07:07:09;;;;;;;6.8;5.9;;;;;;;11.21;58.00098;969.6085;;;;
2019/04/19 07:09:35;;;;;;;6.6;6;;;;;;;11.32;57.71484;969.6409;;;;
2019/04/19 07:11:59;;;;;;;6.7;6;;;;;;;11.4;57.77344;969.6459;;;;
2019/04/19 07:14:31;;;;;;;6.6;6;;;;;;;11.53;57.35059;969.5745;;;;
2019/04/19 07:16:55;;;;;;;7;6.4;;;;;;;11.55;57.65332;969.658;;;;
2019/04/19 07:19:21;;;;;;;6.9;6.1;;;;;;;11.69;56.60742;969.6318;;;;
2019/04/19 07:21:53;;;;;;;7;6.1;;;;;;;11.79;56.2041;969.6183;;;;
2019/04/19 07:24:18;;;;;;;6.6;6;;;;;;;11.86;56.21387;969.6505;;;;
2019/04/19 07:26:43;;;;;;;6.4;5.8;;;;;;;11.88;55.75391;969.7166;;;;
2019/04/19 07:29:08;;;;;;;8.1;6.2;;;;;;;12.11;55.23926;969.7372;;;;
2019/04/19 07:31:33;;;;;;;6.4;5.8;;;;;;;12.12;55.72656;969.7405;;;;
2019/04/19 07:33:58;;;;;;;7.1;6.4;;;;;;;12.25;55.41895;969.8098;;;;
2019/04/19 07:36:23;;;;;;;6.8;6;;;;;;;12.39;55.28613;969.856;;;;
2019/04/19 07:38:49;;;;;;;6.7;6.1;;;;;;;12.44;54.43555;969.8214;;;;
2019/04/19 07:41:14;;;;;;;6.4;5.8;;;;;;;12.56;53.98535;969.8614;;;;
2019/04/19 07:43:46;;;;;;;6.5;5.9;;;;;;;12.58;53.9541;969.8466;;;;
2019/04/19 07:46:04;;;;;;;6.8;6.2;;;;;;;12.78;54.31543;969.8912;;;;
2019/04/19 07:48:36;;;;;;;6.5;5.9;;;;;;;12.94;53.39453;969.9228;;;;
2019/04/19 07:50:54;;;;;;;6.9;6.2;;;;;;;13.01;53.57813;969.9673;;;;
2019/04/19 07:53:22;;;;;;;5.6;5.1;;;;;;;13.22;52.54688;969.9678;;;;
2019/04/19 07:55:48;;;;;;;6.7;6.1;;;;;;;13.29;52.00977;970.0602;;;;
2019/04/19 07:58:18;;;;;;;6.2;5.6;;;;;;;13.36;51.53027;970.0009;;;;
2019/04/19 08:00:43;;;;;;;8.3;6;;;;;;;13.4;52.20898;970.0614;;;;
2019/04/19 08:03:11;;;;;;;6.9;6.2;;;;;;;13.37;52.19434;970.0342;;;;
2019/04/19 08:05:41;;;;;;;6.9;6.1;;;;;;;13.53;50.94531;970.0533;;;;
2019/04/19 08:08:06;;;;;;;6.8;6.1;;;;;;;13.67;51.66016;970.1068;;;;
2019/04/19 08:10:31;;;;;;;6.6;6;;;;;;;13.84;51.77246;970.0946;;;;
2019/04/19 08:12:56;;;;;;;7;6.3;;;;;;;14;50.91992;970.0606;;;;
2019/04/19 08:15:21;;;;;;;6.6;5.9;;;;;;;13.98;49.7666;970.0451;;;;
2019/04/19 08:17:47;;;;;;;7.1;6.1;;;;;;;13.92;50.21289;970.0861;;;;
2019/04/19 08:20:12;;;;;;;6.7;6.1;;;;;;;14.14;49.79688;970.1277;;;;
2019/04/19 08:22:39;;;;;;;6.6;6;;;;;;;14.33;49.63184;970.1295;;;;
2019/04/19 08:25:04;;;;;;;8.3;7;;;;;;;14.45;48.96973;970.0959;;;;
2019/04/19 08:27:33;;;;;;;7;6.3;;;;;;;14.68;50.54395;970.1196;;;;
2019/04/19 08:29:57;;;;;;;8.2;6.5;;;;;;;14.78;50.7666;970.0486;;;;
2019/04/19 08:32:24;;;;;;;7.6;6.2;;;;;;;14.78;48.19141;970.113;;;;
2019/04/19 08:34:57;;;;;;;7;6.3;;;;;;;14.92;49.41797;970.1285;;;;
2019/04/19 08:37:29;;;;;;;7.6;6.6;;;;;;;15.17;49.26074;970.1183;;;;
2019/04/19 08:39:54;;;;;;;7.2;6.5;;;;;;;15;48.14453;970.0121;;;;
2019/04/19 08:42:19;;;;;;;8.8;6.2;;;;;;;15.2;48.03906;970.103;;;;
2019/04/19 08:44:44;;;;;;;6.8;6.2;;;;;;;15.23;47.64551;970.0136;;;;
2019/04/19 08:50:12;;;;;;;7.1;6.4;;;;;;;15.72;46.18164;970.1155;;;;
2019/04/19 08:52:32;;;;;;;7.2;6.5;;;;;;;15.83;47.13965;970.1116;;;;
2019/04/19 08:54:56;;;;;;;6.9;5.8;;;;;;;16.03;46.9502;970.1453;;;;
2019/04/19 08:57:21;;;;;;;7.4;6.7;;;;;;;15.58;46.97168;970.0356;;;;
2019/04/19 08:59:46;;;;;;;6.7;6.1;;;;;;;15.58;46.1084;970.0525;;;;
2019/04/19 09:02:11;;;;;;;6.5;5.9;;;;;;;15.82;45.53809;970.0737;;;;
2019/04/19 09:04:37;;;;;;;7.3;6.1;;;;;;;16.25;46.56543;970.1086;;;;
2019/04/19 09:07:02;;;;;;;6.5;5.8;;;;;;;16.54;47.2041;970.0709;;;;
2019/04/19 09:09:29;;;;;;;6.8;6.1;;;;;;;16.6;45.91211;970.0125;;;;
2019/04/19 09:11:54;;;;;;;7;6.2;;;;;;;16.44;43.60156;970.0314;;;;
2019/04/19 09:14:24;;;;;;;6.3;5.7;;;;;;;16.75;45.30664;970.0906;;;;
2019/04/19 09:16:49;;;;;;;6.6;5.9;;;;;;;16.97;44.28711;970.113;;;;
2019/04/19 09:19:14;;;;;;;7.1;6.4;;;;;;;16.88;44.2666;970.1066;;;;
2019/04/19 09:21:39;;;;;;;7.8;6.2;;;;;;;16.81;44.85645;970.1014;;;;
2019/04/19 09:24:04;;;;;;;6.6;6;;;;;;;16.77;43.44824;970.058;;;;
2019/04/19 09:26:32;;;;;;;6.6;5.9;;;;;;;17.44;45.29688;970.1145;;;;
2019/04/19 09:28:55;;;;;;;7;5.8;;;;;;;17.38;43.54395;970.0999;;;;
2019/04/19 09:31:21;;;;;;;6.5;5.9;;;;;;;17.51;42.98242;970.1534;;;;
2019/04/19 09:33:48;;;;;;;5.8;5.1;;;;;;;17.74;43.88477;970.1008;;;;
2019/04/19 09:36:13;;;;;;;7.7;6;;;;;;;17.98;44.46094;970.1376;;;;
2019/04/19 09:38:39;;;;;;;6.7;5.9;;;;;;;17.84;42.70996;970.0505;;;;
2019/04/19 09:41:04;;;;;;;6.5;5.9;;;;;;;17.89;40.75391;970.0878;;;;
2019/04/19 09:43:32;;;;;;;7.1;6;;;;;;;18.31;41.43945;970.0942;;;;
2019/04/19 09:45:57;;;;;;;6.1;5.5;;;;;;;18.45;39.39648;970.0636;;;;
2019/04/19 09:48:23;;;;;;;6.2;5.6;;;;;;;18.71;40.93652;970.0931;;;;
2019/04/19 09:50:48;;;;;;;7;5.8;;;;;;;18.51;40.49414;970.0873;;;;
2019/04/19 09:53:13;;;;;;;6.8;5.6;;;;;;;18.76;41.24707;970.0955;;;;
2019/04/19 09:55:38;;;;;;;6.4;5.8;;;;;;;18.55;40.89746;970.0776;;;;
2019/04/19 09:58:04;;;;;;;6.4;5.8;;;;;;;18.61;40.29199;970.0701;;;;
2019/04/19 10:00:28;;;;;;;6.2;5.6;;;;;;;18.81;40.33398;969.9772;;;;
2019/04/19 10:02:53;;;;;;;10.2;5.8;;;;;;;19.21;40.18164;970.0538;;;;
2019/04/19 10:05:24;;;;;;;6;5.4;;;;;;;19.43;40.46094;970.0352;;;;
2019/04/19 10:07:50;;;;;;;6.3;5.5;;;;;;;19.53;39.22266;970.0569;;;;
2019/04/19 10:10:19;;;;;;;6.2;5.6;;;;;;;19.51;39.56152;970.0725;;;;
2019/04/19 10:12:46;;;;;;;8.1;5.8;;;;;;;18.9;40.12988;969.9967;;;;
2019/04/19 10:15:25;;;;;;;6.4;5.4;;;;;;;19.48;38.96973;970.0366;;;;
2019/04/19 10:17:39;;;;;;;6;5.4;;;;;;;20.01;38.6748;970.0781;;;;
2019/04/19 10:20:06;;;;;;;8.2;5.6;;;;;;;19.32;37.37793;969.9788;;;;
2019/04/19 10:22:31;;;;;;;6.3;5.4;;;;;;;19.33;36.61328;970.0477;;;;
2019/04/19 10:25:18;;;;;;;7.2;5.8;;;;;;;19.64;37.16992;969.9347;;;;
2019/04/19 10:27:55;;;;;;;8;5.6;;;;;;;19.61;37.88672;969.9297;;;;
2019/04/19 10:32:45;;;;;;;5.6;5.1;;;;;;;19.83;36.01855;969.9153;;;;
2019/04/19 10:35:11;;;;;;;8;5.3;;;;;;;20.48;37.14648;969.9842;;;;
2019/04/19 10:37:36;;;;;;;6.6;5.3;;;;;;;20.16;36.89551;969.9384;;;;
2019/04/19 10:40:01;;;;;;;5.5;4.7;;;;;;;19.97;34.79297;969.9191;;;;
2019/04/19 10:42:28;;;;;;;6.1;5;;;;;;;20.6;35.63281;970.0034;;;;
2019/04/19 10:44:53;;;;;;;7.9;5;;;;;;;20.98;35.78223;969.9363;;;;
2019/04/19 10:47:20;;;;;;;6.2;5;;;;;;;20.68;34.54199;969.9055;;;;
2019/04/19 10:49:45;;;;;;;6.5;4.7;;;;;;;20.97;34.91895;969.8851;;;;
2019/04/19 10:52:19;;;;;;;5.8;5.3;;;;;;;20.78;34.54883;969.9014;;;;
2019/04/19 10:54:39;;;;;;;5.8;5.1;;;;;;;20.83;33.69043;969.8903;;;;
2019/04/19 10:57:15;;;;;;;7.6;4.9;;;;;;;21.19;34.62793;969.8948;;;;
2019/04/19 10:59:40;;;;;;;5.7;5.1;;;;;;;21.59;34.02148;969.889;;;;
2019/04/19 11:02:10;;;;;;;8.5;5.4;;;;;;;21.33;33.3623;969.8808;;;;
2019/04/19 11:04:41;;;;;;;5.7;4.8;;;;;;;21.32;34.31934;969.8739;;;;
2019/04/19 11:07:24;;;;;;;5.4;4.9;;;;;;;21.68;31.87402;969.8858;;;;
2019/04/19 11:09:53;;;;;;;5.4;4.9;;;;;;;21.15;32.72168;969.8398;;;;
2019/04/19 11:12:18;;;;;;;5.6;5;;;;;;;21.46;30.34375;969.7853;;;;
2019/04/19 11:14:44;;;;;;;5.9;4.9;;;;;;;21.84;31.37598;969.8;;;;
2019/04/19 11:17:11;;;;;;;6.2;4.6;;;;;;;22.1;30.62402;969.7817;;;;
2019/04/19 11:19:36;;;;;;;6.6;5;;;;;;;22.29;29.54688;969.8158;;;;
2019/04/19 11:22:03;;;;;;;5.7;4.4;;;;;;;22.36;32.18359;969.7803;;;;
2019/04/19 11:24:28;;;;;;;7.1;5;;;;;;;22.68;30.77051;969.7238;;;;
2019/04/19 11:26:53;;;;;;;6.7;4.5;;;;;;;23.24;29.43164;969.7059;;;;
2019/04/19 11:29:18;;;;;;;5.1;4.6;;;;;;;22.97;29.86523;969.7315;;;;
2019/04/19 11:31:57;;;;;;;5.3;4.2;;;;;;;23.58;31.1543;969.6096;;;;
2019/04/19 11:34:08;;;;;;;5.6;4.6;;;;;;;23.45;28.34082;969.6451;;;;
2019/04/19 11:36:36;;;;;;;5.6;4.7;;;;;;;22.77;27.34766;969.6287;;;;
2019/04/19 11:39:01;;;;;;;6;4.6;;;;;;;23.46;29.28027;969.6439;;;;
2019/04/19 11:41:26;;;;;;;5.4;4.9;;;;;;;23.73;27.78711;969.6672;;;;
2019/04/19 11:43:51;;;;;;;5.1;4.6;;;;;;;24.38;29.94727;969.6778;;;;
2019/04/19 11:46:16;;;;;;;7.6;4.8;;;;;;;23.99;27.44727;969.7383;;;;
2019/04/19 11:48:41;;;;;;;5.7;4.7;;;;;;;23.95;27.45605;969.7481;;;;
2019/04/19 11:51:06;;;;;;;6.3;4.6;;;;;;;24.47;27.60742;969.6906;;;;
2019/04/19 11:53:36;;;;;;;4.7;4.1;;;;;;;25.18;24.52637;969.6297;;;;
2019/04/19 11:56:19;;;;;;;5.1;3.7;;;;;;;24.81;26.41309;969.658;;;;
2019/04/19 11:58:33;;;;;;;5.8;4.4;;;;;;;23.73;27.50293;969.6233;;;;
2019/04/19 12:01:18;;;;;;;5.9;4.1;;;;;;;24.55;25.0752;969.6088;;;;
2019/04/19 12:03:40;;;;;;;4.4;3.8;;;;;;;24.66;23.63965;969.6574;;;;
2019/04/19 12:06:05;;;;;;;6.6;4;;;;;;;23.97;26.80273;969.6583;;;;
2019/04/19 12:08:31;;;;;;;3.6;3.3;;;;;;;25.62;25.24316;969.6624;;;;
2019/04/19 12:10:57;;;;;;;4.8;4;;;;;;;25.77;22.88574;969.6972;;;;
2019/04/19 12:13:22;;;;;;;4.5;4.1;;;;;;;25.55;23.54297;969.7175;;;;
2019/04/19 12:15:47;;;;;;;4;3.4;;;;;;;25.73;23.75586;969.7209;;;;
2019/04/19 12:18:15;;;;;;;5.1;3.6;;;;;;;25.78;22.98242;969.8008;;;;
2019/04/19 12:20:41;;;;;;;5.4;3.8;;;;;;;25.04;21.42969;969.6802;;;;
2019/04/19 12:23:07;;;;;;;5.4;3.4;;;;;;;25.3;24.9502;969.6638;;;;
2019/04/19 12:25:32;;;;;;;5.5;3.7;;;;;;;25.49;24.19727;969.6426;;;;
2019/04/19 12:27:58;;;;;;;4.4;3.4;;;;;;;26.04;22.49414;969.6378;;;;
2019/04/19 12:30:23;;;;;;;4.2;3.8;;;;;;;25.26;23.11035;969.7429;;;;
2019/04/19 12:32:56;;;;;;;3.8;3.3;;;;;;;25.07;22.98145;969.707;;;;
2019/04/19 12:35:21;;;;;;;4.5;3.4;;;;;;;25.27;22.5625;969.6158;;;;
2019/04/19 12:37:54;;;;;;;3.3;3;;;;;;;26.28;20.75977;969.7678;;;;
2019/04/19 12:40:20;;;;;;;3.3;2.9;;;;;;;27.31;20.41211;969.7206;;;;
2019/04/19 12:42:45;;;;;;;3.4;3.1;;;;;;;25.59;19.34277;969.6632;;;;
2019/04/19 12:45:10;;;;;;;3.8;3;;;;;;;26.01;17.48438;969.6739;;;;
2019/04/19 12:47:35;;;;;;;4.8;3.3;;;;;;;26.35;20.15234;969.6089;;;;
2019/04/19 12:50:00;;;;;;;4.2;3.3;;;;;;;25.95;19.40527;969.6531;;;;
2019/04/19 12:52:26;;;;;;;3.9;3.4;;;;;;;26.14;20.51465;969.6749;;;;
2019/04/19 12:54:53;;;;;;;3.8;3.4;;;;;;;26.98;20.78027;969.6858;;;;
2019/04/19 12:57:24;;;;;;;3.7;3.3;;;;;;;27.24;19.89355;969.6096;;;;
2019/04/19 12:59:54;;;;;;;4.4;3.4;;;;;;;26.44;20.56348;969.6172;;;;
2019/04/19 13:02:28;;;;;;;5.4;3.6;;;;;;;25.53;19.0293;969.5413;;;;
2019/04/19 13:05:03;;;;;;;4.2;3.7;;;;;;;25.79;19.32715;969.4717;;;;
2019/04/19 13:07:16;;;;;;;3.7;3.1;;;;;;;25.57;19.54492;969.4647;;;;
2019/04/19 13:09:39;;;;;;;3.3;2.8;;;;;;;26.16;19.71387;969.4664;;;;
2019/04/19 13:12:04;;;;;;;4.9;3.2;;;;;;;26.02;20.15039;969.4969;;;;
2019/04/19 13:14:29;;;;;;;3.5;2.9;;;;;;;26.9;19.18359;969.4573;;;;
2019/04/19 13:16:55;;;;;;;4.9;3.3;;;;;;;26.83;19.4082;969.4641;;;;
2019/04/19 13:19:20;;;;;;;4.7;3.3;;;;;;;26.73;20.0625;969.4141;;;;
2019/04/19 13:22:03;;;;;;;4.1;3.5;;;;;;;26.77;18.80762;969.3976;;;;
2019/04/19 13:24:28;;;;;;;4.4;3;;;;;;;26.47;19.4043;969.4364;;;;
2019/04/19 13:26:57;;;;;;;3.3;3;;;;;;;26.22;18.87988;969.3705;;;;
2019/04/19 13:29:25;;;;;;;3.2;2.9;;;;;;;25.7;18.53516;969.4056;;;;
2019/04/19 13:31:51;;;;;;;3.9;3.1;;;;;;;26.74;18.13477;969.3422;;;;
2019/04/19 13:34:19;;;;;;;3.3;3;;;;;;;27.08;19.02344;969.2534;;;;
2019/04/19 13:44:03;;;;;;;4.7;2.8;;;;;;;27.63;16.66016;969.2618;;;;
2019/04/19 13:46:28;;;;;;;3.9;3.1;;;;;;;26.15;19.68945;969.2537;;;;
2019/04/19 13:48:53;;;;;;;4.1;3.3;;;;;;;27.48;16.9541;969.2508;;;;
2019/04/19 13:51:18;;;;;;;3.4;3.1;;;;;;;26.82;18.11523;969.2106;;;;
2019/04/19 13:53:45;;;;;;;4.7;2.9;;;;;;;26.7;18.60059;969.1683;;;;
2019/04/19 13:56:10;;;;;;;3.1;2.4;;;;;;;26.82;18.05469;969.2118;;;;
2019/04/19 13:58:39;;;;;;;3.8;2.7;;;;;;;27.52;18.43066;969.2012;;;;
2019/04/19 14:01:04;;;;;;;3.1;2.4;;;;;;;26.27;18.83398;969.2269;;;;
2019/04/19 14:03:29;;;;;;;3.7;2.8;;;;;;;26.53;19;969.1512;;;;
2019/04/19 14:05:54;;;;;;;3.7;2.7;;;;;;;27.82;17.83105;969.0784;;;;
2019/04/19 14:08:19;;;;;;;3.9;2.8;;;;;;;27.73;17.41992;969.1144;;;;
2019/04/19 14:10:44;;;;;;;3.6;3.1;;;;;;;27.33;16.80469;969.1255;;;;
2019/04/19 14:13:09;;;;;;;5.5;3.2;;;;;;;27.34;17.45215;969.1032;;;;
2019/04/19 14:15:35;;;;;;;3.6;2.9;;;;;;;26.54;19.27637;969.0975;;;;
2019/04/19 14:18:00;;;;;;;5.2;3;;;;;;;26.78;18.35254;969.1117;;;;
2019/04/19 14:20:33;;;;;;;5.1;2.7;;;;;;;26.57;18.41602;969.1494;;;;
2019/04/19 14:23:03;;;;;;;3.6;2.7;;;;;;;26.73;19.43945;969.1422;;;;
2019/04/19 14:25:28;;;;;;;3.6;3.2;;;;;;;25.76;20.60352;969.0865;;;;
2019/04/19 14:27:57;;;;;;;3.7;3;;;;;;;26.14;18.14648;969.1421;;;;
2019/04/19 14:30:22;;;;;;;3.9;3.2;;;;;;;25.46;18.76367;969.0327;;;;
2019/04/19 14:32:49;;;;;;;4.6;3;;;;;;;25.66;19.53613;969.0494;;;;
2019/04/19 14:35:21;;;;;;;5.1;3.4;;;;;;;26.19;18.0293;969.0248;;;;
2019/04/19 14:37:48;;;;;;;4.2;3.2;;;;;;;26.38;18.39648;969.0343;;;;
2019/04/19 14:40:14;;;;;;;3.7;3.3;;;;;;;26.29;18.88281;969.0828;;;;
2019/04/19 14:42:45;;;;;;;5.6;3.1;;;;;;;27.26;18.79102;969.0101;;;;
2019/04/19 14:45:16;;;;;;;3.8;2.9;;;;;;;27.09;17.95801;968.9581;;;;
2019/04/19 14:47:49;;;;;;;4.2;2.8;;;;;;;27.21;18.21387;968.9781;;;;
2019/04/19 14:50:14;;;;;;;5.4;2.9;;;;;;;27.84;17.41211;969.0048;;;;
2019/04/19 14:52:40;;;;;;;5.5;2.9;;;;;;;27.71;16.71094;968.9033;;;;
2019/04/19 14:55:05;;;;;;;3.9;3;;;;;;;27.2;18.16602;968.9675;;;;
2019/04/19 14:57:30;;;;;;;3.1;2.8;;;;;;;27.05;17.68066;968.9471;;;;
2019/04/19 14:59:55;;;;;;;5.3;3;;;;;;;26.36;18.50293;969.0027;;;;